sensor_id;sensor_type;location;lat;lon;timestamp;P1;durP1;ratioP1;P2;durP2;ratioP2
34481;SDS011;20720;48.886;9.388;2023-04-06T00:00:48;10.73;;;5.78;;
34481;SDS011;20720;48.886;9.388;2023-04-06T00:03:14;12.02;;;5.90;;
34481;SDS011;20720;48.886;9.388;2023-04-06T00:05:40;11.40;;;6.28;;
34481;SDS011;20720;48.886;9.388;2023-04-06T00:08:06;10.80;;;5.85;;
34481;SDS011;20720;48.886;9.388;2023-04-06T00:10:31;11.82;;;6.43;;
34481;SDS011;20720;48.886;9.388;2023-04-06T00:12:57;8.88;;;5.85;;
34481;SDS011;20720;48.886;9.388;2023-04-06T00:15:23;11.02;;;6.57;;
34481;SDS011;20720;48.886;9.388;2023-04-06T00:17:48;11.57;;;6.50;;
34481;SDS011;20720;48.886;9.388;2023-04-06T00:20:14;9.35;;;5.65;;
34481;SDS011;20720;48.886;9.388;2023-04-06T00:22:40;11.32;;;6.38;;
34481;SDS011;20720;48.886;9.388;2023-04-06T00:25:06;10.25;;;6.60;;
34481;SDS011;20720;48.886;9.388;2023-04-06T00:27:31;11.70;;;6.22;;
34481;SDS011;20720;48.886;9.388;2023-04-06T00:29:56;10.38;;;6.80;;
34481;SDS011;20720;48.886;9.388;2023-04-06T00:32:22;10.07;;;6.05;;
34481;SDS011;20720;48.886;9.388;2023-04-06T00:34:47;11.93;;;6.03;;
34481;SDS011;20720;48.886;9.388;2023-04-06T00:37:12;10.10;;;6.00;;
34481;SDS011;20720;48.886;9.388;2023-04-06T00:39:38;10.63;;;6.57;;
34481;SDS011;20720;48.886;9.388;2023-04-06T00:42:07;10.90;;;6.25;;
34481;SDS011;20720;48.886;9.388;2023-04-06T00:44:37;11.27;;;6.45;;
34481;SDS011;20720;48.886;9.388;2023-04-06T00:47:03;12.90;;;6.88;;
34481;SDS011;20720;48.886;9.388;2023-04-06T00:49:28;12.40;;;6.50;;
34481;SDS011;20720;48.886;9.388;2023-04-06T00:51:53;9.65;;;5.88;;
34481;SDS011;20720;48.886;9.388;2023-04-06T00:54:19;11.77;;;7.07;;
34481;SDS011;20720;48.886;9.388;2023-04-06T00:56:45;10.60;;;6.28;;
34481;SDS011;20720;48.886;9.388;2023-04-06T00:59:10;11.75;;;7.07;;
34481;SDS011;20720;48.886;9.388;2023-04-06T01:01:36;12.20;;;6.97;;
34481;SDS011;20720;48.886;9.388;2023-04-06T01:04:02;11.00;;;6.75;;
34481;SDS011;20720;48.886;9.388;2023-04-06T01:06:28;11.95;;;6.53;;
34481;SDS011;20720;48.886;9.388;2023-04-06T01:08:53;12.93;;;7.22;;
34481;SDS011;20720;48.886;9.388;2023-04-06T01:11:19;12.25;;;7.32;;
34481;SDS011;20720;48.886;9.388;2023-04-06T01:13:44;12.35;;;7.72;;
34481;SDS011;20720;48.886;9.388;2023-04-06T01:16:09;9.50;;;6.50;;
34481;SDS011;20720;48.886;9.388;2023-04-06T01:18:35;11.82;;;6.65;;
34481;SDS011;20720;48.886;9.388;2023-04-06T01:21:02;11.93;;;7.25;;
34481;SDS011;20720;48.886;9.388;2023-04-06T01:23:27;12.68;;;7.20;;
34481;SDS011;20720;48.886;9.388;2023-04-06T01:25:53;14.43;;;6.82;;
34481;SDS011;20720;48.886;9.388;2023-04-06T01:28:18;11.05;;;7.15;;
34481;SDS011;20720;48.886;9.388;2023-04-06T01:30:43;13.43;;;7.30;;
34481;SDS011;20720;48.886;9.388;2023-04-06T01:33:08;12.95;;;7.55;;
34481;SDS011;20720;48.886;9.388;2023-04-06T01:35:34;12.57;;;7.38;;
34481;SDS011;20720;48.886;9.388;2023-04-06T01:38:00;11.48;;;7.53;;
34481;SDS011;20720;48.886;9.388;2023-04-06T01:40:25;12.00;;;6.38;;
34481;SDS011;20720;48.886;9.388;2023-04-06T01:42:50;10.93;;;7.15;;
34481;SDS011;20720;48.886;9.388;2023-04-06T01:45:16;12.63;;;6.68;;
34481;SDS011;20720;48.886;9.388;2023-04-06T01:47:41;11.25;;;7.57;;
34481;SDS011;20720;48.886;9.388;2023-04-06T01:50:06;13.68;;;7.05;;
34481;SDS011;20720;48.886;9.388;2023-04-06T01:52:32;11.85;;;7.00;;
34481;SDS011;20720;48.886;9.388;2023-04-06T01:54:58;11.48;;;6.30;;
34481;SDS011;20720;48.886;9.388;2023-04-06T01:57:23;11.55;;;6.97;;
34481;SDS011;20720;48.886;9.388;2023-04-06T01:59:50;14.43;;;7.88;;
34481;SDS011;20720;48.886;9.388;2023-04-06T02:02:15;11.65;;;7.35;;
34481;SDS011;20720;48.886;9.388;2023-04-06T02:04:41;11.02;;;6.78;;
34481;SDS011;20720;48.886;9.388;2023-04-06T02:07:06;12.98;;;7.07;;
34481;SDS011;20720;48.886;9.388;2023-04-06T02:09:31;14.13;;;7.00;;
34481;SDS011;20720;48.886;9.388;2023-04-06T02:11:56;11.95;;;7.18;;
34481;SDS011;20720;48.886;9.388;2023-04-06T02:14:24;11.68;;;7.25;;
34481;SDS011;20720;48.886;9.388;2023-04-06T02:16:50;14.45;;;7.53;;
34481;SDS011;20720;48.886;9.388;2023-04-06T02:19:16;14.63;;;7.28;;
34481;SDS011;20720;48.886;9.388;2023-04-06T02:21:41;17.63;;;7.55;;
34481;SDS011;20720;48.886;9.388;2023-04-06T02:24:06;13.07;;;7.32;;
34481;SDS011;20720;48.886;9.388;2023-04-06T02:26:32;12.48;;;7.07;;
34481;SDS011;20720;48.886;9.388;2023-04-06T02:28:57;12.02;;;7.10;;
34481;SDS011;20720;48.886;9.388;2023-04-06T02:31:22;12.90;;;7.43;;
34481;SDS011;20720;48.886;9.388;2023-04-06T02:33:47;13.57;;;7.18;;
34481;SDS011;20720;48.886;9.388;2023-04-06T02:36:13;11.07;;;6.72;;
34481;SDS011;20720;48.886;9.388;2023-04-06T02:38:38;11.15;;;7.40;;
34481;SDS011;20720;48.886;9.388;2023-04-06T02:41:03;10.43;;;6.57;;
34481;SDS011;20720;48.886;9.388;2023-04-06T02:43:28;15.02;;;7.47;;
34481;SDS011;20720;48.886;9.388;2023-04-06T02:45:54;11.63;;;6.93;;
34481;SDS011;20720;48.886;9.388;2023-04-06T02:48:19;12.52;;;6.97;;
34481;SDS011;20720;48.886;9.388;2023-04-06T02:50:45;11.38;;;6.40;;
34481;SDS011;20720;48.886;9.388;2023-04-06T02:53:10;11.55;;;7.32;;
34481;SDS011;20720;48.886;9.388;2023-04-06T02:55:35;12.52;;;6.97;;
34481;SDS011;20720;48.886;9.388;2023-04-06T02:58:00;12.85;;;7.88;;
34481;SDS011;20720;48.886;9.388;2023-04-06T03:00:26;11.18;;;7.60;;
34481;SDS011;20720;48.886;9.388;2023-04-06T03:02:51;12.20;;;7.53;;
34481;SDS011;20720;48.886;9.388;2023-04-06T03:05:16;13.63;;;8.25;;
34481;SDS011;20720;48.886;9.388;2023-04-06T03:07:42;12.77;;;7.70;;
34481;SDS011;20720;48.886;9.388;2023-04-06T03:10:07;13.20;;;7.10;;
34481;SDS011;20720;48.886;9.388;2023-04-06T03:12:32;13.90;;;7.25;;
34481;SDS011;20720;48.886;9.388;2023-04-06T03:14:58;9.88;;;6.47;;
34481;SDS011;20720;48.886;9.388;2023-04-06T03:17:23;9.48;;;6.18;;
34481;SDS011;20720;48.886;9.388;2023-04-06T03:19:48;10.05;;;6.05;;
34481;SDS011;20720;48.886;9.388;2023-04-06T03:22:14;15.43;;;6.38;;
34481;SDS011;20720;48.886;9.388;2023-04-06T03:24:39;9.90;;;5.88;;
34481;SDS011;20720;48.886;9.388;2023-04-06T03:27:04;13.00;;;6.85;;
34481;SDS011;20720;48.886;9.388;2023-04-06T03:29:31;9.90;;;5.68;;
34481;SDS011;20720;48.886;9.388;2023-04-06T03:31:56;11.20;;;6.38;;
34481;SDS011;20720;48.886;9.388;2023-04-06T03:34:21;11.48;;;6.82;;
34481;SDS011;20720;48.886;9.388;2023-04-06T03:36:47;13.40;;;7.05;;
34481;SDS011;20720;48.886;9.388;2023-04-06T03:39:12;11.15;;;6.78;;
34481;SDS011;20720;48.886;9.388;2023-04-06T03:41:37;10.68;;;6.35;;
34481;SDS011;20720;48.886;9.388;2023-04-06T03:44:04;13.43;;;6.97;;
34481;SDS011;20720;48.886;9.388;2023-04-06T03:46:30;14.45;;;6.10;;
34481;SDS011;20720;48.886;9.388;2023-04-06T03:48:55;11.55;;;6.18;;
34481;SDS011;20720;48.886;9.388;2023-04-06T03:51:20;9.60;;;5.65;;
34481;SDS011;20720;48.886;9.388;2023-04-06T03:53:46;10.27;;;6.15;;
34481;SDS011;20720;48.886;9.388;2023-04-06T03:56:11;11.13;;;6.45;;
34481;SDS011;20720;48.886;9.388;2023-04-06T03:58:37;13.60;;;7.07;;
34481;SDS011;20720;48.886;9.388;2023-04-06T04:01:02;11.40;;;7.28;;
34481;SDS011;20720;48.886;9.388;2023-04-06T04:03:27;13.02;;;7.55;;
34481;SDS011;20720;48.886;9.388;2023-04-06T04:05:53;12.10;;;7.47;;
34481;SDS011;20720;48.886;9.388;2023-04-06T04:08:19;10.82;;;6.32;;
34481;SDS011;20720;48.886;9.388;2023-04-06T04:10:45;11.98;;;6.45;;
34481;SDS011;20720;48.886;9.388;2023-04-06T04:13:10;13.88;;;7.72;;
34481;SDS011;20720;48.886;9.388;2023-04-06T04:15:35;11.63;;;6.63;;
34481;SDS011;20720;48.886;9.388;2023-04-06T04:18:01;12.75;;;6.60;;
34481;SDS011;20720;48.886;9.388;2023-04-06T04:20:26;11.27;;;6.13;;
34481;SDS011;20720;48.886;9.388;2023-04-06T04:22:51;12.30;;;6.10;;
34481;SDS011;20720;48.886;9.388;2023-04-06T04:25:16;12.65;;;6.95;;
34481;SDS011;20720;48.886;9.388;2023-04-06T04:27:42;11.25;;;6.13;;
34481;SDS011;20720;48.886;9.388;2023-04-06T04:30:07;11.45;;;6.47;;
34481;SDS011;20720;48.886;9.388;2023-04-06T04:32:32;10.65;;;6.65;;
34481;SDS011;20720;48.886;9.388;2023-04-06T04:34:58;11.10;;;5.97;;
34481;SDS011;20720;48.886;9.388;2023-04-06T04:37:23;11.75;;;6.50;;
34481;SDS011;20720;48.886;9.388;2023-04-06T04:39:48;14.82;;;6.45;;
34481;SDS011;20720;48.886;9.388;2023-04-06T04:42:14;12.45;;;6.35;;
34481;SDS011;20720;48.886;9.388;2023-04-06T04:44:39;12.75;;;7.40;;
34481;SDS011;20720;48.886;9.388;2023-04-06T04:47:04;14.73;;;7.80;;
34481;SDS011;20720;48.886;9.388;2023-04-06T04:49:30;11.73;;;7.03;;
34481;SDS011;20720;48.886;9.388;2023-04-06T04:51:55;13.25;;;7.03;;
34481;SDS011;20720;48.886;9.388;2023-04-06T04:54:20;12.75;;;6.45;;
34481;SDS011;20720;48.886;9.388;2023-04-06T04:56:46;11.00;;;6.88;;
34481;SDS011;20720;48.886;9.388;2023-04-06T04:59:11;13.32;;;7.68;;
34481;SDS011;20720;48.886;9.388;2023-04-06T05:01:36;12.30;;;8.07;;
34481;SDS011;20720;48.886;9.388;2023-04-06T05:04:01;11.30;;;6.53;;
34481;SDS011;20720;48.886;9.388;2023-04-06T05:06:27;10.88;;;5.85;;
34481;SDS011;20720;48.886;9.388;2023-04-06T05:08:52;11.85;;;6.60;;
34481;SDS011;20720;48.886;9.388;2023-04-06T05:11:17;10.10;;;6.00;;
34481;SDS011;20720;48.886;9.388;2023-04-06T05:13:43;14.60;;;8.98;;
34481;SDS011;20720;48.886;9.388;2023-04-06T05:16:08;17.92;;;9.65;;
34481;SDS011;20720;48.886;9.388;2023-04-06T05:18:33;17.95;;;7.65;;
34481;SDS011;20720;48.886;9.388;2023-04-06T05:20:59;10.57;;;6.30;;
34481;SDS011;20720;48.886;9.388;2023-04-06T05:23:24;13.38;;;7.50;;
34481;SDS011;20720;48.886;9.388;2023-04-06T05:25:49;23.58;;;12.80;;
34481;SDS011;20720;48.886;9.388;2023-04-06T05:28:15;32.28;;;17.08;;
34481;SDS011;20720;48.886;9.388;2023-04-06T05:30:41;35.15;;;18.75;;
34481;SDS011;20720;48.886;9.388;2023-04-06T05:33:11;29.17;;;16.48;;
34481;SDS011;20720;48.886;9.388;2023-04-06T05:35:36;30.45;;;16.52;;
34481;SDS011;20720;48.886;9.388;2023-04-06T05:38:02;27.63;;;15.07;;
34481;SDS011;20720;48.886;9.388;2023-04-06T05:40:27;21.73;;;12.93;;
34481;SDS011;20720;48.886;9.388;2023-04-06T05:42:52;25.65;;;12.23;;
34481;SDS011;20720;48.886;9.388;2023-04-06T05:45:18;19.70;;;10.43;;
34481;SDS011;20720;48.886;9.388;2023-04-06T05:47:44;19.17;;;9.38;;
34481;SDS011;20720;48.886;9.388;2023-04-06T05:50:10;16.45;;;10.10;;
34481;SDS011;20720;48.886;9.388;2023-04-06T05:52:36;17.25;;;9.50;;
34481;SDS011;20720;48.886;9.388;2023-04-06T05:55:01;14.20;;;7.82;;
34481;SDS011;20720;48.886;9.388;2023-04-06T05:57:27;14.85;;;7.28;;
34481;SDS011;20720;48.886;9.388;2023-04-06T05:59:53;12.25;;;7.93;;
34481;SDS011;20720;48.886;9.388;2023-04-06T06:02:18;13.77;;;6.82;;
34481;SDS011;20720;48.886;9.388;2023-04-06T06:04:43;13.98;;;7.00;;
34481;SDS011;20720;48.886;9.388;2023-04-06T06:07:08;17.05;;;8.18;;
34481;SDS011;20720;48.886;9.388;2023-04-06T06:09:34;16.17;;;8.15;;
34481;SDS011;20720;48.886;9.388;2023-04-06T06:11:59;15.75;;;8.18;;
34481;SDS011;20720;48.886;9.388;2023-04-06T06:14:25;14.57;;;8.15;;
34481;SDS011;20720;48.886;9.388;2023-04-06T06:16:53;16.75;;;7.03;;
34481;SDS011;20720;48.886;9.388;2023-04-06T06:19:19;13.45;;;7.82;;
34481;SDS011;20720;48.886;9.388;2023-04-06T06:21:44;15.63;;;8.18;;
34481;SDS011;20720;48.886;9.388;2023-04-06T06:24:09;12.27;;;6.22;;
34481;SDS011;20720;48.886;9.388;2023-04-06T06:26:34;11.55;;;6.32;;
34481;SDS011;20720;48.886;9.388;2023-04-06T06:29:02;9.40;;;5.80;;
34481;SDS011;20720;48.886;9.388;2023-04-06T06:31:27;14.18;;;7.10;;
34481;SDS011;20720;48.886;9.388;2023-04-06T06:33:53;12.95;;;6.93;;
34481;SDS011;20720;48.886;9.388;2023-04-06T06:36:18;14.95;;;6.20;;
34481;SDS011;20720;48.886;9.388;2023-04-06T06:38:44;10.27;;;6.15;;
34481;SDS011;20720;48.886;9.388;2023-04-06T06:41:09;11.00;;;6.55;;
34481;SDS011;20720;48.886;9.388;2023-04-06T06:43:35;16.67;;;8.70;;
34481;SDS011;20720;48.886;9.388;2023-04-06T06:46:00;15.02;;;8.20;;
34481;SDS011;20720;48.886;9.388;2023-04-06T06:48:25;14.02;;;7.82;;
34481;SDS011;20720;48.886;9.388;2023-04-06T06:50:51;13.60;;;8.88;;
34481;SDS011;20720;48.886;9.388;2023-04-06T06:53:16;13.43;;;7.57;;
34481;SDS011;20720;48.886;9.388;2023-04-06T06:55:41;12.65;;;6.53;;
34481;SDS011;20720;48.886;9.388;2023-04-06T06:58:09;14.73;;;7.43;;
34481;SDS011;20720;48.886;9.388;2023-04-06T07:00:34;16.02;;;8.15;;
34481;SDS011;20720;48.886;9.388;2023-04-06T07:03:00;13.45;;;7.38;;
34481;SDS011;20720;48.886;9.388;2023-04-06T07:05:25;13.60;;;7.35;;
34481;SDS011;20720;48.886;9.388;2023-04-06T07:07:51;12.35;;;7.40;;
34481;SDS011;20720;48.886;9.388;2023-04-06T07:10:16;12.43;;;7.32;;
34481;SDS011;20720;48.886;9.388;2023-04-06T07:12:42;14.60;;;7.85;;
34481;SDS011;20720;48.886;9.388;2023-04-06T07:15:07;13.15;;;6.95;;
34481;SDS011;20720;48.886;9.388;2023-04-06T07:17:33;15.10;;;7.70;;
34481;SDS011;20720;48.886;9.388;2023-04-06T07:19:58;11.02;;;6.60;;
34481;SDS011;20720;48.886;9.388;2023-04-06T07:22:23;10.13;;;6.13;;
34481;SDS011;20720;48.886;9.388;2023-04-06T07:24:48;12.95;;;7.97;;
34481;SDS011;20720;48.886;9.388;2023-04-06T07:27:14;13.68;;;6.00;;
34481;SDS011;20720;48.886;9.388;2023-04-06T07:29:41;11.95;;;6.72;;
34481;SDS011;20720;48.886;9.388;2023-04-06T07:32:06;10.35;;;6.55;;
34481;SDS011;20720;48.886;9.388;2023-04-06T07:34:32;16.27;;;7.40;;
34481;SDS011;20720;48.886;9.388;2023-04-06T07:36:57;12.30;;;6.93;;
34481;SDS011;20720;48.886;9.388;2023-04-06T07:39:22;11.10;;;6.47;;
34481;SDS011;20720;48.886;9.388;2023-04-06T07:41:48;10.32;;;6.13;;
34481;SDS011;20720;48.886;9.388;2023-04-06T07:44:13;11.02;;;6.47;;
34481;SDS011;20720;48.886;9.388;2023-04-06T07:46:39;10.02;;;6.47;;
34481;SDS011;20720;48.886;9.388;2023-04-06T07:49:05;12.15;;;5.65;;
34481;SDS011;20720;48.886;9.388;2023-04-06T07:51:30;9.65;;;5.80;;
34481;SDS011;20720;48.886;9.388;2023-04-06T07:53:56;10.60;;;6.47;;
34481;SDS011;20720;48.886;9.388;2023-04-06T07:56:21;12.15;;;6.07;;
34481;SDS011;20720;48.886;9.388;2023-04-06T07:58:46;8.82;;;5.25;;
34481;SDS011;20720;48.886;9.388;2023-04-06T08:01:12;9.02;;;5.95;;
34481;SDS011;20720;48.886;9.388;2023-04-06T08:03:37;8.05;;;5.15;;
34481;SDS011;20720;48.886;9.388;2023-04-06T08:06:03;13.48;;;6.38;;
34481;SDS011;20720;48.886;9.388;2023-04-06T08:08:29;14.38;;;6.88;;
34481;SDS011;20720;48.886;9.388;2023-04-06T08:10:54;11.00;;;6.50;;
34481;SDS011;20720;48.886;9.388;2023-04-06T08:13:19;10.82;;;7.10;;
34481;SDS011;20720;48.886;9.388;2023-04-06T08:15:45;10.20;;;6.38;;
34481;SDS011;20720;48.886;9.388;2023-04-06T08:18:10;10.27;;;6.70;;
34481;SDS011;20720;48.886;9.388;2023-04-06T08:20:36;11.40;;;6.65;;
34481;SDS011;20720;48.886;9.388;2023-04-06T08:23:01;10.50;;;5.95;;
34481;SDS011;20720;48.886;9.388;2023-04-06T08:25:27;10.85;;;6.82;;
34481;SDS011;20720;48.886;9.388;2023-04-06T08:27:52;10.05;;;6.55;;
34481;SDS011;20720;48.886;9.388;2023-04-06T08:30:17;11.98;;;6.10;;
34481;SDS011;20720;48.886;9.388;2023-04-06T08:32:44;13.00;;;7.15;;
34481;SDS011;20720;48.886;9.388;2023-04-06T08:35:12;9.48;;;6.35;;
34481;SDS011;20720;48.886;9.388;2023-04-06T08:37:37;9.18;;;6.15;;
34481;SDS011;20720;48.886;9.388;2023-04-06T08:40:03;11.38;;;6.78;;
34481;SDS011;20720;48.886;9.388;2023-04-06T08:42:31;10.05;;;6.40;;
34481;SDS011;20720;48.886;9.388;2023-04-06T08:44:57;11.00;;;7.03;;
34481;SDS011;20720;48.886;9.388;2023-04-06T08:47:23;12.00;;;7.03;;
34481;SDS011;20720;48.886;9.388;2023-04-06T08:49:48;12.13;;;7.07;;
34481;SDS011;20720;48.886;9.388;2023-04-06T08:52:14;9.80;;;6.60;;
34481;SDS011;20720;48.886;9.388;2023-04-06T08:54:42;9.68;;;6.15;;
34481;SDS011;20720;48.886;9.388;2023-04-06T08:57:07;11.10;;;7.45;;
34481;SDS011;20720;48.886;9.388;2023-04-06T08:59:34;9.82;;;6.85;;
34481;SDS011;20720;48.886;9.388;2023-04-06T09:02:00;12.68;;;7.50;;
34481;SDS011;20720;48.886;9.388;2023-04-06T09:04:28;9.95;;;6.95;;
34481;SDS011;20720;48.886;9.388;2023-04-06T09:06:54;9.48;;;6.72;;
34481;SDS011;20720;48.886;9.388;2023-04-06T09:09:19;11.40;;;7.35;;
34481;SDS011;20720;48.886;9.388;2023-04-06T09:11:45;10.20;;;7.45;;
34481;SDS011;20720;48.886;9.388;2023-04-06T09:14:12;10.95;;;6.57;;
34481;SDS011;20720;48.886;9.388;2023-04-06T09:16:41;13.77;;;7.55;;
34481;SDS011;20720;48.886;9.388;2023-04-06T09:19:10;9.93;;;7.40;;
34481;SDS011;20720;48.886;9.388;2023-04-06T09:21:36;11.75;;;7.38;;
34481;SDS011;20720;48.886;9.388;2023-04-06T09:24:02;9.52;;;7.15;;
34481;SDS011;20720;48.886;9.388;2023-04-06T09:26:28;11.23;;;7.30;;
34481;SDS011;20720;48.886;9.388;2023-04-06T09:28:54;10.65;;;7.38;;
34481;SDS011;20720;48.886;9.388;2023-04-06T09:31:21;11.15;;;7.95;;
34481;SDS011;20720;48.886;9.388;2023-04-06T09:33:48;10.70;;;6.53;;
34481;SDS011;20720;48.886;9.388;2023-04-06T09:36:14;11.05;;;7.57;;
34481;SDS011;20720;48.886;9.388;2023-04-06T09:38:54;12.55;;;7.13;;
34481;SDS011;20720;48.886;9.388;2023-04-06T09:41:24;11.70;;;7.13;;
34481;SDS011;20720;48.886;9.388;2023-04-06T09:44:05;9.32;;;6.35;;
34481;SDS011;20720;48.886;9.388;2023-04-06T09:49:00;10.65;;;6.53;;
34481;SDS011;20720;48.886;9.388;2023-04-06T09:51:27;9.75;;;6.90;;
34481;SDS011;20720;48.886;9.388;2023-04-06T09:53:56;9.55;;;7.00;;
34481;SDS011;20720;48.886;9.388;2023-04-06T09:56:26;10.27;;;6.85;;
34481;SDS011;20720;48.886;9.388;2023-04-06T09:58:54;9.90;;;6.80;;
34481;SDS011;20720;48.886;9.388;2023-04-06T10:06:43;8.40;;;6.43;;
34481;SDS011;20720;48.886;9.388;2023-04-06T10:09:12;9.52;;;6.65;;
34481;SDS011;20720;48.886;9.388;2023-04-06T10:11:39;10.45;;;6.90;;
34481;SDS011;20720;48.886;9.388;2023-04-06T10:14:05;8.57;;;6.35;;
34481;SDS011;20720;48.886;9.388;2023-04-06T10:16:31;9.57;;;7.00;;
34481;SDS011;20720;48.886;9.388;2023-04-06T10:19:00;12.07;;;7.03;;
34481;SDS011;20720;48.886;9.388;2023-04-06T10:21:32;9.35;;;6.70;;
34481;SDS011;20720;48.886;9.388;2023-04-06T10:24:00;10.18;;;6.55;;
34481;SDS011;20720;48.886;9.388;2023-04-06T10:26:27;8.63;;;6.43;;
34481;SDS011;20720;48.886;9.388;2023-04-06T10:28:53;9.70;;;5.82;;
34481;SDS011;20720;48.886;9.388;2023-04-06T10:31:26;9.30;;;6.45;;
34481;SDS011;20720;48.886;9.388;2023-04-06T10:36:25;7.88;;;5.82;;
34481;SDS011;20720;48.886;9.388;2023-04-06T10:38:56;11.68;;;6.43;;
34481;SDS011;20720;48.886;9.388;2023-04-06T10:41:24;8.20;;;6.10;;
34481;SDS011;20720;48.886;9.388;2023-04-06T10:43:57;8.57;;;5.90;;
34481;SDS011;20720;48.886;9.388;2023-04-06T10:46:27;7.75;;;5.80;;
34481;SDS011;20720;48.886;9.388;2023-04-06T10:48:53;8.77;;;6.18;;
34481;SDS011;20720;48.886;9.388;2023-04-06T10:51:27;9.25;;;6.22;;
34481;SDS011;20720;48.886;9.388;2023-04-06T10:53:53;6.68;;;3.88;;
34481;SDS011;20720;48.886;9.388;2023-04-06T10:56:21;8.23;;;5.80;;
34481;SDS011;20720;48.886;9.388;2023-04-06T10:58:49;6.55;;;5.00;;
34481;SDS011;20720;48.886;9.388;2023-04-06T11:01:16;8.60;;;5.80;;
34481;SDS011;20720;48.886;9.388;2023-04-06T11:03:44;9.30;;;6.25;;
34481;SDS011;20720;48.886;9.388;2023-04-06T11:06:22;7.00;;;5.18;;
34481;SDS011;20720;48.886;9.388;2023-04-06T11:08:50;8.23;;;5.28;;
34481;SDS011;20720;48.886;9.388;2023-04-06T11:11:17;7.13;;;5.10;;
34481;SDS011;20720;48.886;9.388;2023-04-06T11:16:18;7.38;;;5.25;;
34481;SDS011;20720;48.886;9.388;2023-04-06T11:18:51;8.93;;;5.53;;
34481;SDS011;20720;48.886;9.388;2023-04-06T11:21:17;9.43;;;6.22;;
34481;SDS011;20720;48.886;9.388;2023-04-06T11:23:43;6.68;;;4.88;;
34481;SDS011;20720;48.886;9.388;2023-04-06T11:26:11;8.07;;;4.80;;
34481;SDS011;20720;48.886;9.388;2023-04-06T11:28:38;8.82;;;5.60;;
34481;SDS011;20720;48.886;9.388;2023-04-06T11:31:04;7.13;;;5.13;;
34481;SDS011;20720;48.886;9.388;2023-04-06T11:33:34;6.07;;;4.65;;
34481;SDS011;20720;48.886;9.388;2023-04-06T11:36:00;7.05;;;4.45;;
34481;SDS011;20720;48.886;9.388;2023-04-06T11:38:26;5.90;;;3.97;;
34481;SDS011;20720;48.886;9.388;2023-04-06T11:40:54;5.47;;;3.90;;
34481;SDS011;20720;48.886;9.388;2023-04-06T11:43:25;7.13;;;4.82;;
34481;SDS011;20720;48.886;9.388;2023-04-06T11:45:58;7.13;;;4.15;;
34481;SDS011;20720;48.886;9.388;2023-04-06T11:48:26;5.90;;;4.10;;
34481;SDS011;20720;48.886;9.388;2023-04-06T11:50:55;6.38;;;4.70;;
34481;SDS011;20720;48.886;9.388;2023-04-06T11:53:21;5.75;;;4.13;;
34481;SDS011;20720;48.886;9.388;2023-04-06T11:55:47;5.75;;;4.32;;
34481;SDS011;20720;48.886;9.388;2023-04-06T11:58:12;7.50;;;5.03;;
34481;SDS011;20720;48.886;9.388;2023-04-06T12:00:37;6.63;;;4.67;;
34481;SDS011;20720;48.886;9.388;2023-04-06T12:03:02;7.93;;;5.05;;
34481;SDS011;20720;48.886;9.388;2023-04-06T12:05:28;6.28;;;4.60;;
34481;SDS011;20720;48.886;9.388;2023-04-06T12:07:53;7.30;;;4.60;;
34481;SDS011;20720;48.886;9.388;2023-04-06T12:10:19;5.18;;;4.10;;
34481;SDS011;20720;48.886;9.388;2023-04-06T12:12:44;7.22;;;4.45;;
34481;SDS011;20720;48.886;9.388;2023-04-06T12:15:10;5.38;;;4.10;;
34481;SDS011;20720;48.886;9.388;2023-04-06T12:17:35;6.68;;;4.53;;
34481;SDS011;20720;48.886;9.388;2023-04-06T12:20:01;5.38;;;3.50;;
34481;SDS011;20720;48.886;9.388;2023-04-06T12:22:27;5.13;;;3.30;;
34481;SDS011;20720;48.886;9.388;2023-04-06T12:24:53;5.03;;;3.67;;
34481;SDS011;20720;48.886;9.388;2023-04-06T12:27:18;5.80;;;3.70;;
34481;SDS011;20720;48.886;9.388;2023-04-06T12:29:43;5.40;;;3.67;;
34481;SDS011;20720;48.886;9.388;2023-04-06T12:32:09;6.43;;;4.30;;
34481;SDS011;20720;48.886;9.388;2023-04-06T12:34:34;6.53;;;4.35;;
34481;SDS011;20720;48.886;9.388;2023-04-06T12:36:59;6.00;;;4.13;;
34481;SDS011;20720;48.886;9.388;2023-04-06T12:39:25;5.50;;;3.70;;
34481;SDS011;20720;48.886;9.388;2023-04-06T12:41:52;7.10;;;4.03;;
34481;SDS011;20720;48.886;9.388;2023-04-06T12:44:18;6.55;;;4.35;;
34481;SDS011;20720;48.886;9.388;2023-04-06T12:46:43;9.98;;;4.30;;
34481;SDS011;20720;48.886;9.388;2023-04-06T12:49:08;5.03;;;3.80;;
34481;SDS011;20720;48.886;9.388;2023-04-06T12:51:33;6.25;;;3.78;;
34481;SDS011;20720;48.886;9.388;2023-04-06T12:53:59;5.25;;;4.20;;
34481;SDS011;20720;48.886;9.388;2023-04-06T12:56:24;5.60;;;4.05;;
34481;SDS011;20720;48.886;9.388;2023-04-06T12:58:50;6.07;;;4.13;;
34481;SDS011;20720;48.886;9.388;2023-04-06T13:01:16;7.32;;;4.78;;
34481;SDS011;20720;48.886;9.388;2023-04-06T13:03:42;5.10;;;3.65;;
34481;SDS011;20720;48.886;9.388;2023-04-06T13:06:08;6.50;;;4.78;;
34481;SDS011;20720;48.886;9.388;2023-04-06T13:08:34;6.28;;;4.18;;
34481;SDS011;20720;48.886;9.388;2023-04-06T13:11:02;5.60;;;4.50;;
34481;SDS011;20720;48.886;9.388;2023-04-06T13:13:27;5.88;;;4.40;;
34481;SDS011;20720;48.886;9.388;2023-04-06T13:15:55;6.00;;;4.22;;
34481;SDS011;20720;48.886;9.388;2023-04-06T13:18:24;6.10;;;4.13;;
34481;SDS011;20720;48.886;9.388;2023-04-06T13:20:49;6.78;;;4.05;;
34481;SDS011;20720;48.886;9.388;2023-04-06T13:23:15;5.00;;;3.97;;
34481;SDS011;20720;48.886;9.388;2023-04-06T13:25:40;6.75;;;4.60;;
34481;SDS011;20720;48.886;9.388;2023-04-06T13:28:06;5.38;;;4.00;;
34481;SDS011;20720;48.886;9.388;2023-04-06T13:30:35;6.45;;;4.97;;
34481;SDS011;20720;48.886;9.388;2023-04-06T13:33:01;7.68;;;5.45;;
34481;SDS011;20720;48.886;9.388;2023-04-06T13:35:26;7.75;;;4.13;;
34481;SDS011;20720;48.886;9.388;2023-04-06T13:37:52;5.85;;;4.43;;
34481;SDS011;20720;48.886;9.388;2023-04-06T13:40:17;6.63;;;4.20;;
34481;SDS011;20720;48.886;9.388;2023-04-06T13:42:43;8.77;;;4.25;;
34481;SDS011;20720;48.886;9.388;2023-04-06T13:45:10;5.57;;;3.75;;
34481;SDS011;20720;48.886;9.388;2023-04-06T13:47:35;6.93;;;3.65;;
34481;SDS011;20720;48.886;9.388;2023-04-06T13:50:01;6.28;;;3.50;;
34481;SDS011;20720;48.886;9.388;2023-04-06T13:52:27;5.07;;;3.33;;
34481;SDS011;20720;48.886;9.388;2023-04-06T13:54:52;8.17;;;4.10;;
34481;SDS011;20720;48.886;9.388;2023-04-06T13:57:17;7.80;;;4.10;;
34481;SDS011;20720;48.886;9.388;2023-04-06T13:59:42;5.63;;;3.90;;
34481;SDS011;20720;48.886;9.388;2023-04-06T14:02:08;8.13;;;4.47;;
34481;SDS011;20720;48.886;9.388;2023-04-06T14:04:35;6.30;;;4.18;;
34481;SDS011;20720;48.886;9.388;2023-04-06T14:07:01;5.78;;;4.13;;
34481;SDS011;20720;48.886;9.388;2023-04-06T14:09:27;6.35;;;4.15;;
34481;SDS011;20720;48.886;9.388;2023-04-06T14:11:53;6.65;;;3.85;;
34481;SDS011;20720;48.886;9.388;2023-04-06T14:14:18;5.75;;;3.58;;
34481;SDS011;20720;48.886;9.388;2023-04-06T14:16:44;6.50;;;3.67;;
34481;SDS011;20720;48.886;9.388;2023-04-06T14:19:10;7.38;;;4.28;;
34481;SDS011;20720;48.886;9.388;2023-04-06T14:21:37;5.65;;;4.25;;
34481;SDS011;20720;48.886;9.388;2023-04-06T14:24:04;7.20;;;3.90;;
34481;SDS011;20720;48.886;9.388;2023-04-06T14:26:30;6.50;;;4.40;;
34481;SDS011;20720;48.886;9.388;2023-04-06T14:28:56;6.35;;;3.97;;
34481;SDS011;20720;48.886;9.388;2023-04-06T14:31:23;5.65;;;4.07;;
34481;SDS011;20720;48.886;9.388;2023-04-06T14:33:49;6.35;;;3.80;;
34481;SDS011;20720;48.886;9.388;2023-04-06T14:36:14;8.48;;;4.65;;
34481;SDS011;20720;48.886;9.388;2023-04-06T14:38:40;8.23;;;4.68;;
34481;SDS011;20720;48.886;9.388;2023-04-06T14:41:05;6.38;;;3.92;;
34481;SDS011;20720;48.886;9.388;2023-04-06T14:43:31;5.70;;;3.58;;